Time;durP1;ratioP1;P1;durP2;ratioP2;P2;SDS_P1;SDS_P2;PMS_P1;PMS_P2;Temp;Humidity;BMP_temperature;BMP_pressure;BME280_temperature;BME280_humidity;BME280_pressure;Samples;Min_cycle;Max_cycle;Signal;HPM_P1;HPM_P2
2021/07/22 00:02:23;;;;;;;6.95;5.03;;;;;;;;;;5021548;28;20029;-71
2021/07/22 00:04:49;;;;;;;7.57;5.95;;;;;;;;;;5021776;28;20029;-72
2021/07/22 00:07:15;;;;;;;8.77;5.70;;;;;;;;;;5020661;28;20045;-71
2021/07/22 00:09:42;;;;;;;8.38;5.65;;;;;;;;;;5018098;28;20029;-71
2021/07/22 00:12:09;;;;;;;7.22;5.07;;;;;;;;;;5020216;28;20030;-72
2021/07/22 00:14:36;;;;;;;5.65;4.93;;;;;;;;;;5019843;28;20047;-71
2021/07/22 00:17:06;;;;;;;5.80;5.30;;;;;;;;;;5034076;28;20026;-70
2021/07/22 00:19:32;;;;;;;6.68;5.47;;;;;;;;;;5023485;28;20425;-71
2021/07/22 00:21:59;;;;;;;5.50;5.00;;;;;;;;;;5029095;28;20381;-72
2021/07/22 00:24:26;;;;;;;8.45;5.22;;;;;;;;;;5021875;28;20494;-71
2021/07/22 00:26:52;;;;;;;8.73;4.90;;;;;;;;;;5026743;28;20026;-71
2021/07/22 00:29:18;;;;;;;10.18;6.28;;;;;;;;;;5021740;28;20018;-70
2021/07/22 00:31:44;;;;;;;7.82;6.10;;;;;;;;;;5025209;28;20026;-72
2021/07/22 00:34:10;;;;;;;6.85;5.38;;;;;;;;;;5020526;28;20025;-71
2021/07/22 00:36:37;;;;;;;5.95;5.20;;;;;;;;;;5028809;28;20041;-70
2021/07/22 00:39:03;;;;;;;6.10;4.75;;;;;;;;;;5020306;28;20060;-71
2021/07/22 00:41:29;;;;;;;6.47;5.35;;;;;;;;;;5023179;28;20022;-70
2021/07/22 00:43:56;;;;;;;5.45;4.93;;;;;;;;;;5022456;28;20035;-72
2021/07/22 00:46:22;;;;;;;5.55;4.95;;;;;;;;;;5025347;28;20481;-71
2021/07/22 00:48:49;;;;;;;6.82;5.40;;;;;;;;;;5028987;28;20026;-70
2021/07/22 00:51:15;;;;;;;7.13;4.90;;;;;;;;;;5023703;28;20070;-71
2021/07/22 00:53:41;;;;;;;5.35;4.82;;;;;;;;;;5027233;28;20022;-71
2021/07/22 00:56:07;;;;;;;6.55;4.50;;;;;;;;;;5025022;28;20021;-70
2021/07/22 00:58:33;;;;;;;5.45;4.80;;;;;;;;;;5024134;28;20026;-70
2021/07/22 01:00:59;;;;;;;9.30;4.82;;;;;;;;;;5021154;28;20116;-71
2021/07/22 01:03:26;;;;;;;8.63;5.00;;;;;;;;;;5023891;28;20045;-71
2021/07/22 01:05:52;;;;;;;5.80;5.05;;;;;;;;;;5018193;28;20087;-72
2021/07/22 01:08:18;;;;;;;9.23;5.07;;;;;;;;;;5026245;28;20029;-71
2021/07/22 01:10:44;;;;;;;8.63;5.38;;;;;;;;;;5016787;28;20044;-70
2021/07/22 01:13:10;;;;;;;6.85;4.55;;;;;;;;;;5028252;28;20519;-72
2021/07/22 01:15:36;;;;;;;6.65;4.95;;;;;;;;;;5024834;28;20030;-72
2021/07/22 01:18:02;;;;;;;9.05;5.80;;;;;;;;;;5028346;28;20050;-71
2021/07/22 01:20:29;;;;;;;8.57;5.00;;;;;;;;;;5021398;28;20040;-71
2021/07/22 01:22:56;;;;;;;8.88;5.50;;;;;;;;;;5022794;28;20683;-71
2021/07/22 01:25:23;;;;;;;5.95;5.05;;;;;;;;;;5019936;28;20064;-72
2021/07/22 01:27:50;;;;;;;8.00;4.95;;;;;;;;;;5030208;28;20036;-72
2021/07/22 01:30:17;;;;;;;9.07;5.50;;;;;;;;;;5022782;28;20037;-71
2021/07/22 01:32:43;;;;;;;6.03;4.75;;;;;;;;;;5023263;28;20527;-70
2021/07/22 01:35:10;;;;;;;6.15;4.97;;;;;;;;;;5015442;28;20038;-70
2021/07/22 01:37:38;;;;;;;6.28;4.45;;;;;;;;;;5026596;28;20021;-70
2021/07/22 01:40:05;;;;;;;6.25;4.80;;;;;;;;;;5019965;28;20034;-70
2021/07/22 01:42:31;;;;;;;8.05;4.75;;;;;;;;;;5026832;28;20017;-71
2021/07/22 01:44:57;;;;;;;7.22;4.82;;;;;;;;;;5023796;28;20041;-71
2021/07/22 01:47:23;;;;;;;7.57;4.65;;;;;;;;;;5022372;28;20022;-71
2021/07/22 01:49:49;;;;;;;6.68;4.47;;;;;;;;;;5025725;28;20504;-72
2021/07/22 01:52:16;;;;;;;5.15;4.63;;;;;;;;;;5015775;28;20025;-72
2021/07/22 01:54:42;;;;;;;4.82;4.38;;;;;;;;;;5029502;28;20131;-72
2021/07/22 01:57:08;;;;;;;5.35;4.45;;;;;;;;;;5013096;28;20050;-70
2021/07/22 01:59:37;;;;;;;4.93;4.45;;;;;;;;;;5028245;28;20040;-71
2021/07/22 02:02:04;;;;;;;6.25;4.20;;;;;;;;;;5009378;28;20100;-71
2021/07/22 02:04:30;;;;;;;6.43;4.57;;;;;;;;;;5025202;28;20040;-70
2021/07/22 02:06:56;;;;;;;5.00;4.55;;;;;;;;;;5018278;28;20094;-70
2021/07/22 02:09:23;;;;;;;8.23;4.57;;;;;;;;;;5026177;28;20017;-71
2021/07/22 02:11:49;;;;;;;6.05;5.10;;;;;;;;;;5021702;28;20033;-70
2021/07/22 02:14:15;;;;;;;5.70;4.57;;;;;;;;;;5013910;28;20491;-70
2021/07/22 02:16:42;;;;;;;9.45;4.68;;;;;;;;;;5024640;28;20037;-70
2021/07/22 02:19:08;;;;;;;5.55;4.50;;;;;;;;;;5026739;28;20124;-71
2021/07/22 02:21:35;;;;;;;5.80;4.70;;;;;;;;;;5027088;28;20021;-72
2021/07/22 02:24:01;;;;;;;6.68;5.07;;;;;;;;;;5025203;28;20116;-71
2021/07/22 02:26:28;;;;;;;7.82;4.88;;;;;;;;;;5025286;28;20026;-71
2021/07/22 02:28:54;;;;;;;8.73;4.65;;;;;;;;;;5026730;28;20026;-71
2021/07/22 02:31:20;;;;;;;5.25;4.60;;;;;;;;;;5021463;28;20104;-72
2021/07/22 02:33:46;;;;;;;4.53;4.13;;;;;;;;;;5026467;28;20078;-72
2021/07/22 02:36:12;;;;;;;5.15;4.63;;;;;;;;;;5024725;28;20033;-71
2021/07/22 02:38:39;;;;;;;6.85;4.90;;;;;;;;;;5026487;28;20029;-71
2021/07/22 02:41:05;;;;;;;8.32;4.55;;;;;;;;;;5026219;28;20026;-71
2021/07/22 02:43:32;;;;;;;6.35;4.90;;;;;;;;;;5026900;28;20120;-72
2021/07/22 02:45:58;;;;;;;9.27;4.57;;;;;;;;;;5024727;28;20033;-71
2021/07/22 02:48:24;;;;;;;8.23;4.72;;;;;;;;;;5026184;28;20101;-70
2021/07/22 02:50:50;;;;;;;6.13;4.80;;;;;;;;;;5026327;28;20030;-71
2021/07/22 02:53:16;;;;;;;7.13;4.78;;;;;;;;;;5026486;28;20044;-72
2021/07/22 02:55:42;;;;;;;6.35;4.80;;;;;;;;;;5026531;28;20025;-71
2021/07/22 02:58:08;;;;;;;6.10;4.63;;;;;;;;;;5024677;28;20025;-72
2021/07/22 03:00:35;;;;;;;7.05;4.97;;;;;;;;;;5026661;28;20022;-71
2021/07/22 03:03:01;;;;;;;6.60;4.60;;;;;;;;;;5018718;28;20033;-72
2021/07/22 03:05:29;;;;;;;9.00;4.68;;;;;;;;;;5021181;28;20041;-70
2021/07/22 03:07:55;;;;;;;8.45;4.22;;;;;;;;;;5020976;28;20029;-71
2021/07/22 03:10:22;;;;;;;5.85;4.70;;;;;;;;;;5021235;28;20588;-71
2021/07/22 03:12:48;;;;;;;6.10;4.20;;;;;;;;;;5019653;28;20029;-71
2021/07/22 03:15:14;;;;;;;7.05;4.78;;;;;;;;;;5020582;28;20025;-71
2021/07/22 03:17:41;;;;;;;6.88;4.55;;;;;;;;;;5021267;28;20052;-72
2021/07/22 03:20:07;;;;;;;10.20;4.80;;;;;;;;;;5021167;28;20034;-72
2021/07/22 03:22:33;;;;;;;6.13;4.60;;;;;;;;;;5020964;28;20040;-70
2021/07/22 03:24:59;;;;;;;6.40;4.90;;;;;;;;;;5021510;28;20040;-71
2021/07/22 03:27:25;;;;;;;8.38;5.00;;;;;;;;;;5019893;28;20018;-71
2021/07/22 03:29:52;;;;;;;5.30;4.80;;;;;;;;;;5021468;28;20053;-71
2021/07/22 03:32:18;;;;;;;7.30;5.05;;;;;;;;;;5020947;28;20026;-71
2021/07/22 03:34:46;;;;;;;5.65;4.53;;;;;;;;;;5021413;28;20040;-71
2021/07/22 03:37:12;;;;;;;6.90;5.18;;;;;;;;;;5021268;28;20040;-71
2021/07/22 03:39:38;;;;;;;6.07;4.57;;;;;;;;;;5019297;28;20029;-71
2021/07/22 03:42:10;;;;;;;6.53;5.03;;;;;;;;;;5020934;28;20029;-72
2021/07/22 03:44:36;;;;;;;8.38;4.78;;;;;;;;;;5020614;28;20033;-71
2021/07/22 03:47:05;;;;;;;6.30;4.75;;;;;;;;;;5023424;28;20061;-71
2021/07/22 03:49:32;;;;;;;8.20;4.65;;;;;;;;;;5022780;28;20478;-70
2021/07/22 03:52:01;;;;;;;7.07;4.47;;;;;;;;;;5025332;28;20045;-71
2021/07/22 03:54:30;;;;;;;5.60;4.45;;;;;;;;;;5023038;28;20124;-71
2021/07/22 03:56:57;;;;;;;5.32;4.82;;;;;;;;;;5024456;28;20121;-71
2021/07/22 03:59:23;;;;;;;8.48;4.63;;;;;;;;;;5024709;28;20033;-71
2021/07/22 04:01:49;;;;;;;5.68;4.43;;;;;;;;;;5023902;28;20116;-71
2021/07/22 04:04:15;;;;;;;5.20;4.40;;;;;;;;;;5024903;28;20061;-70
2021/07/22 04:06:41;;;;;;;7.20;4.80;;;;;;;;;;5024722;28;20044;-71
2021/07/22 04:09:07;;;;;;;9.25;4.30;;;;;;;;;;5023362;28;20041;-71
2021/07/22 04:11:37;;;;;;;6.90;4.30;;;;;;;;;;5024316;28;20029;-70
2021/07/22 04:14:03;;;;;;;4.88;4.03;;;;;;;;;;5024605;28;20025;-72
2021/07/22 04:16:29;;;;;;;4.70;4.25;;;;;;;;;;5024157;28;20025;-71
2021/07/22 04:18:56;;;;;;;7.72;4.47;;;;;;;;;;5024100;28;20051;-70
2021/07/22 04:21:24;;;;;;;5.45;4.20;;;;;;;;;;5022945;28;20398;-72
2021/07/22 04:23:53;;;;;;;4.90;4.00;;;;;;;;;;5024080;28;20112;-71
2021/07/22 04:26:24;;;;;;;6.97;4.50;;;;;;;;;;5024185;28;20136;-71
2021/07/22 04:28:52;;;;;;;6.85;4.40;;;;;;;;;;5023900;28;20025;-71
2021/07/22 04:31:21;;;;;;;8.90;4.45;;;;;;;;;;5024035;28;20132;-71
2021/07/22 04:33:50;;;;;;;6.90;4.28;;;;;;;;;;5022324;28;20021;-72
2021/07/22 04:36:18;;;;;;;8.45;4.97;;;;;;;;;;5023452;28;20581;-72
2021/07/22 04:38:44;;;;;;;6.20;4.28;;;;;;;;;;5023742;28;20840;-71
2021/07/22 04:41:13;;;;;;;7.60;4.53;;;;;;;;;;5024302;28;20029;-71
2021/07/22 04:43:39;;;;;;;6.57;4.57;;;;;;;;;;5022367;28;20105;-71
2021/07/22 04:46:06;;;;;;;6.90;4.30;;;;;;;;;;5016194;28;20091;-71
2021/07/22 04:48:32;;;;;;;6.60;4.47;;;;;;;;;;5023185;28;20099;-70
2021/07/22 04:51:07;;;;;;;8.65;5.03;;;;;;;;;;5023776;28;20033;-70
2021/07/22 04:53:36;;;;;;;10.82;5.60;;;;;;;;;;5023948;28;20092;-70
2021/07/22 04:56:05;;;;;;;9.27;5.30;;;;;;;;;;5022017;28;20025;-70
2021/07/22 04:58:31;;;;;;;6.75;5.10;;;;;;;;;;5023052;28;20049;-70
2021/07/22 05:00:57;;;;;;;7.38;5.38;;;;;;;;;;5023688;28;20045;-71
2021/07/22 05:03:23;;;;;;;7.97;5.75;;;;;;;;;;5023973;28;20508;-71
2021/07/22 05:05:50;;;;;;;8.20;5.35;;;;;;;;;;5022122;28;20399;-72
2021/07/22 05:08:16;;;;;;;9.75;5.68;;;;;;;;;;5023747;28;20045;-71
2021/07/22 05:10:42;;;;;;;9.07;5.50;;;;;;;;;;5022349;28;20021;-71
2021/07/22 05:13:08;;;;;;;12.75;5.47;;;;;;;;;;5023223;28;20037;-70
2021/07/22 05:15:34;;;;;;;7.75;5.13;;;;;;;;;;5023167;28;20104;-70
2021/07/22 05:18:00;;;;;;;7.50;5.18;;;;;;;;;;5021609;28;20104;-70
2021/07/22 05:20:26;;;;;;;5.70;4.72;;;;;;;;;;5023600;28;20034;-71
2021/07/22 05:22:52;;;;;;;8.05;5.07;;;;;;;;;;5023449;28;20511;-71
2021/07/22 05:25:19;;;;;;;6.13;5.03;;;;;;;;;;5022976;28;20045;-70
2021/07/22 05:27:45;;;;;;;9.10;5.30;;;;;;;;;;5023537;28;20685;-71
2021/07/22 05:30:11;;;;;;;8.40;5.30;;;;;;;;;;5018829;28;20878;-73
2021/07/22 05:32:38;;;;;;;7.63;5.40;;;;;;;;;;5020817;28;20080;-71
2021/07/22 05:35:04;;;;;;;9.50;4.95;;;;;;;;;;5022911;28;20072;-71
2021/07/22 05:37:31;;;;;;;7.35;4.88;;;;;;;;;;5022917;28;20052;-70
2021/07/22 05:39:57;;;;;;;8.10;5.55;;;;;;;;;;5023114;28;20429;-70
2021/07/22 05:42:23;;;;;;;9.45;5.28;;;;;;;;;;5023053;28;20036;-70
2021/07/22 05:44:49;;;;;;;8.98;5.22;;;;;;;;;;5022934;28;20038;-71
2021/07/22 05:47:15;;;;;;;9.07;5.47;;;;;;;;;;5020928;28;20029;-70
2021/07/22 05:49:42;;;;;;;12.90;5.65;;;;;;;;;;5022734;28;20035;-71
2021/07/22 05:52:08;;;;;;;8.07;5.18;;;;;;;;;;5022644;28;20025;-72
2021/07/22 05:54:34;;;;;;;12.70;6.30;;;;;;;;;;5022412;28;20502;-71
2021/07/22 05:57:01;;;;;;;9.57;5.97;;;;;;;;;;5022814;28;20064;-71
2021/07/22 05:59:27;;;;;;;7.90;5.30;;;;;;;;;;5020759;28;20624;-72
2021/07/22 06:01:53;;;;;;;7.90;5.32;;;;;;;;;;5022566;28;20033;-71
2021/07/22 06:04:19;;;;;;;8.68;5.38;;;;;;;;;;5021384;28;20041;-72
2021/07/22 06:06:45;;;;;;;8.82;5.00;;;;;;;;;;5021472;28;20036;-72
2021/07/22 06:09:11;;;;;;;10.18;5.68;;;;;;;;;;5021608;28;20022;-72
2021/07/22 06:11:38;;;;;;;9.38;5.50;;;;;;;;;;5020107;28;20080;-72
2021/07/22 06:14:04;;;;;;;9.25;5.05;;;;;;;;;;5011401;28;20544;-71
2021/07/22 06:16:30;;;;;;;7.22;4.38;;;;;;;;;;5021829;28;20037;-72
2021/07/22 06:18:57;;;;;;;10.32;5.55;;;;;;;;;;5015081;28;20061;-72
2021/07/22 06:21:23;;;;;;;8.48;5.28;;;;;;;;;;5008026;28;20033;-73
2021/07/22 06:23:49;;;;;;;13.07;6.95;;;;;;;;;;5011955;28;21020;-72
2021/07/22 06:26:15;;;;;;;11.48;6.38;;;;;;;;;;5008711;28;20046;-72
2021/07/22 06:28:41;;;;;;;7.22;5.80;;;;;;;;;;5009507;28;20049;-72
2021/07/22 06:31:08;;;;;;;10.52;6.28;;;;;;;;;;5013092;28;20104;-72
2021/07/22 06:33:34;;;;;;;11.73;6.95;;;;;;;;;;5007954;28;20025;-72
2021/07/22 06:36:00;;;;;;;13.13;7.85;;;;;;;;;;5007841;28;20036;-72
2021/07/22 06:38:29;;;;;;;11.27;7.53;;;;;;;;;;5012363;28;20164;-72
2021/07/22 06:40:56;;;;;;;10.13;6.35;;;;;;;;;;5009053;28;20840;-71
2021/07/22 06:43:22;;;;;;;10.77;7.00;;;;;;;;;;5005900;28;20022;-71
2021/07/22 06:45:48;;;;;;;9.60;6.30;;;;;;;;;;5006229;28;20086;-72
2021/07/22 06:48:14;;;;;;;9.60;6.22;;;;;;;;;;5015810;28;20029;-72
2021/07/22 06:50:40;;;;;;;10.40;6.65;;;;;;;;;;5016877;28;20367;-73
2021/07/22 06:53:06;;;;;;;7.65;6.32;;;;;;;;;;5003954;28;20030;-72
2021/07/22 06:55:33;;;;;;;8.63;5.97;;;;;;;;;;5003066;28;20033;-72
2021/07/22 06:58:06;;;;;;;8.15;5.22;;;;;;;;;;5017508;28;20022;-72
2021/07/22 07:00:32;;;;;;;10.50;5.57;;;;;;;;;;5011109;28;20033;-73
2021/07/22 07:03:02;;;;;;;8.30;6.03;;;;;;;;;;5006540;28;20046;-73
2021/07/22 07:05:28;;;;;;;9.32;5.60;;;;;;;;;;5005593;28;20038;-72
2021/07/22 07:07:57;;;;;;;7.63;5.60;;;;;;;;;;5015662;28;20046;-73
2021/07/22 07:10:24;;;;;;;6.60;5.32;;;;;;;;;;5017568;28;20162;-72
2021/07/22 07:12:50;;;;;;;6.03;5.32;;;;;;;;;;5009489;28;20029;-72
2021/07/22 07:15:16;;;;;;;6.40;5.30;;;;;;;;;;5007459;28;20029;-72
2021/07/22 07:17:43;;;;;;;7.25;5.63;;;;;;;;;;5011826;28;20176;-73
2021/07/22 07:20:09;;;;;;;12.10;6.70;;;;;;;;;;5015714;28;20159;-72
2021/07/22 07:22:35;;;;;;;9.98;5.80;;;;;;;;;;5003993;28;20274;-72
2021/07/22 07:25:01;;;;;;;7.72;6.05;;;;;;;;;;5015943;28;20483;-72
2021/07/22 07:27:27;;;;;;;9.70;5.60;;;;;;;;;;5004813;28;20022;-73
2021/07/22 07:29:53;;;;;;;9.20;5.43;;;;;;;;;;5009140;28;20036;-72
2021/07/22 07:32:19;;;;;;;9.23;5.78;;;;;;;;;;5010580;28;20573;-73
2021/07/22 07:34:46;;;;;;;8.93;5.63;;;;;;;;;;5007430;28;20026;-73
2021/07/22 07:37:12;;;;;;;8.73;5.97;;;;;;;;;;5013904;28;20033;-72
2021/07/22 07:39:38;;;;;;;8.60;6.68;;;;;;;;;;5014684;28;20021;-73
2021/07/22 07:42:04;;;;;;;7.97;5.20;;;;;;;;;;5011631;28;20030;-73
2021/07/22 07:44:30;;;;;;;12.32;6.40;;;;;;;;;;5012794;28;20033;-73
2021/07/22 07:46:58;;;;;;;8.27;5.60;;;;;;;;;;5002988;28;20576;-73
2021/07/22 07:49:24;;;;;;;9.90;6.60;;;;;;;;;;5007064;28;20025;-73
2021/07/22 07:51:50;;;;;;;12.07;6.10;;;;;;;;;;5011459;28;20033;-73
2021/07/22 07:54:20;;;;;;;9.75;6.07;;;;;;;;;;5002842;28;20038;-73
2021/07/22 07:56:46;;;;;;;6.90;5.82;;;;;;;;;;5003710;28;20036;-73
2021/07/22 07:59:12;;;;;;;6.63;5.22;;;;;;;;;;5009298;28;20037;-73
2021/07/22 08:01:38;;;;;;;9.95;6.38;;;;;;;;;;5012755;28;20072;-73
2021/07/22 08:04:04;;;;;;;8.13;6.70;;;;;;;;;;5006737;28;20470;-73
2021/07/22 08:06:31;;;;;;;9.40;6.35;;;;;;;;;;5007994;28;20539;-73
2021/07/22 08:08:57;;;;;;;9.18;6.95;;;;;;;;;;5006992;28;20486;-73
2021/07/22 08:11:23;;;;;;;7.55;6.75;;;;;;;;;;5006516;28;20030;-73
2021/07/22 08:13:50;;;;;;;8.45;7.05;;;;;;;;;;5008814;28;20030;-72
2021/07/22 08:16:17;;;;;;;11.45;7.18;;;;;;;;;;5020804;28;20057;-73
2021/07/22 08:18:44;;;;;;;8.23;7.00;;;;;;;;;;5019572;28;20124;-72
2021/07/22 08:21:10;;;;;;;8.65;6.53;;;;;;;;;;5019683;28;20120;-73
2021/07/22 08:23:36;;;;;;;11.57;7.00;;;;;;;;;;5014584;28;20033;-73
2021/07/22 08:26:05;;;;;;;11.45;6.90;;;;;;;;;;5021069;28;20041;-73
2021/07/22 08:28:31;;;;;;;7.95;6.28;;;;;;;;;;5018175;28;20501;-73
2021/07/22 08:30:57;;;;;;;11.95;6.57;;;;;;;;;;5020637;28;20393;-73
2021/07/22 08:33:24;;;;;;;8.23;6.55;;;;;;;;;;5022064;28;20367;-73
2021/07/22 08:35:50;;;;;;;8.77;6.88;;;;;;;;;;5010472;28;20038;-73
2021/07/22 08:38:16;;;;;;;8.00;6.57;;;;;;;;;;5013050;28;20014;-73
2021/07/22 08:40:42;;;;;;;10.00;6.65;;;;;;;;;;5011418;28;20043;-73
2021/07/22 08:43:09;;;;;;;13.57;6.82;;;;;;;;;;5020104;28;20030;-73
2021/07/22 08:45:36;;;;;;;7.47;6.68;;;;;;;;;;5009924;28;20046;-73
2021/07/22 08:48:02;;;;;;;7.78;6.97;;;;;;;;;;5010279;28;20018;-72
2021/07/22 08:50:28;;;;;;;8.93;7.00;;;;;;;;;;5007452;28;20474;-73
2021/07/22 08:52:55;;;;;;;9.05;7.28;;;;;;;;;;5010902;28;20479;-73
2021/07/22 08:55:21;;;;;;;9.93;7.15;;;;;;;;;;5015817;28;20938;-73
2021/07/22 08:57:48;;;;;;;7.32;6.50;;;;;;;;;;5009084;28;20021;-73
2021/07/22 09:00:16;;;;;;;7.80;7.10;;;;;;;;;;5014782;28;20021;-73
2021/07/22 09:02:43;;;;;;;9.43;6.93;;;;;;;;;;5021915;28;20040;-73
2021/07/22 09:05:10;;;;;;;8.57;6.60;;;;;;;;;;5023296;28;20627;-73
2021/07/22 09:07:37;;;;;;;8.25;7.32;;;;;;;;;;5022952;28;20040;-73
2021/07/22 09:10:06;;;;;;;7.60;6.80;;;;;;;;;;5023446;28;20124;-73
2021/07/22 09:12:54;;;;;;;8.30;7.30;;;;;;;;;;5012264;28;20036;-73
2021/07/22 09:15:24;;;;;;;7.95;6.88;;;;;;;;;;5020310;28;20025;-73
2021/07/22 09:17:51;;;;;;;9.02;6.82;;;;;;;;;;5022986;28;20112;-73
2021/07/22 09:20:31;;;;;;;10.40;7.43;;;;;;;;;;5023310;28;20384;-73
2021/07/22 09:22:58;;;;;;;7.55;6.53;;;;;;;;;;5023574;28;20046;-73
2021/07/22 09:25:44;;;;;;;11.02;7.10;;;;;;;;;;5021059;28;20069;-72
2021/07/22 09:28:17;;;;;;;8.07;7.28;;;;;;;;;;5018310;28;20029;-73
2021/07/22 09:31:00;;;;;;;9.40;7.70;;;;;;;;;;5017883;28;20068;-72
2021/07/22 09:33:42;;;;;;;8.30;7.50;;;;;;;;;;5017219;28;20029;-72
2021/07/22 09:36:29;;;;;;;7.68;6.85;;;;;;;;;;5019749;28;20034;-73
2021/07/22 09:39:15;;;;;;;8.70;7.32;;;;;;;;;;5022811;28;20029;-72
2021/07/22 09:41:41;;;;;;;8.05;6.80;;;;;;;;;;5016254;28;20056;-73
2021/07/22 09:44:26;;;;;;;9.20;7.10;;;;;;;;;;5026304;28;20097;-75
2021/07/22 09:46:52;;;;;;;9.95;6.50;;;;;;;;;;5017750;28;20046;-72
2021/07/22 09:49:18;;;;;;;11.98;7.40;;;;;;;;;;5019718;28;20079;-72
2021/07/22 09:51:44;;;;;;;7.57;6.22;;;;;;;;;;5022260;28;20025;-72
2021/07/22 09:54:12;;;;;;;8.65;6.50;;;;;;;;;;5022324;28;20600;-72
2021/07/22 09:56:38;;;;;;;8.60;6.78;;;;;;;;;;5015345;28;20026;-72
2021/07/22 09:59:05;;;;;;;6.03;5.32;;;;;;;;;;5004964;28;20436;-72
2021/07/22 10:01:41;;;;;;;8.65;6.45;;;;;;;;;;5017469;28;20025;-71
2021/07/22 10:04:08;;;;;;;8.15;6.50;;;;;;;;;;5022031;28;20112;-71
2021/07/22 10:06:35;;;;;;;8.32;6.55;;;;;;;;;;5022447;28;20040;-71
2021/07/22 10:09:03;;;;;;;7.35;6.53;;;;;;;;;;5022090;28;20486;-71
2021/07/22 10:11:29;;;;;;;7.05;6.40;;;;;;;;;;5021972;28;20037;-71
2021/07/22 10:13:55;;;;;;;8.48;6.35;;;;;;;;;;5022608;28;20025;-71
2021/07/22 10:16:23;;;;;;;6.78;6.18;;;;;;;;;;5022222;28;20025;-71
2021/07/22 10:18:50;;;;;;;10.23;6.80;;;;;;;;;;5020887;28;20075;-71
2021/07/22 10:21:16;;;;;;;7.25;5.93;;;;;;;;;;5022058;28;20416;-71
2021/07/22 10:23:43;;;;;;;6.80;5.78;;;;;;;;;;5021970;28;20040;-71
2021/07/22 10:26:09;;;;;;;6.88;5.75;;;;;;;;;;5022093;28;20034;-71
2021/07/22 10:28:36;;;;;;;10.52;6.57;;;;;;;;;;5020115;28;20474;-71
2021/07/22 10:31:06;;;;;;;5.93;5.32;;;;;;;;;;5012755;28;20030;-71
2021/07/22 10:33:34;;;;;;;8.65;6.10;;;;;;;;;;5021354;28;20030;-71
2021/07/22 10:36:01;;;;;;;7.93;5.57;;;;;;;;;;5007247;28;20062;-71
2021/07/22 10:38:53;;;;;;;7.03;6.00;;;;;;;;;;5020714;28;20025;-71
2021/07/22 10:41:39;;;;;;;7.85;5.70;;;;;;;;;;5017308;28;20061;-71
2021/07/22 10:44:31;;;;;;;8.43;6.00;;;;;;;;;;5021629;28;20477;-71
2021/07/22 10:46:58;;;;;;;7.78;5.65;;;;;;;;;;5021338;28;20128;-71
2021/07/22 10:49:41;;;;;;;7.75;5.18;;;;;;;;;;5021658;28;20022;-71
2021/07/22 10:52:08;;;;;;;6.75;5.38;;;;;;;;;;5020224;28;20037;-71
2021/07/22 10:54:51;;;;;;;6.82;5.45;;;;;;;;;;5021514;28;20024;-71
2021/07/22 10:57:37;;;;;;;8.40;5.53;;;;;;;;;;5021107;28;20033;-71
2021/07/22 11:00:04;;;;;;;11.43;5.60;;;;;;;;;;5022215;28;20044;-71
2021/07/22 11:02:43;;;;;;;9.10;5.90;;;;;;;;;;5018049;28;20100;-71
2021/07/22 11:05:10;;;;;;;10.95;6.05;;;;;;;;;;5015042;28;20131;-72
2021/07/22 11:07:36;;;;;;;7.50;5.53;;;;;;;;;;5020124;28;20026;-71
2021/07/22 11:10:03;;;;;;;7.82;5.28;;;;;;;;;;5019094;28;20071;-71
2021/07/22 11:12:55;;;;;;;6.90;4.93;;;;;;;;;;5021053;28;20120;-71
2021/07/22 11:15:41;;;;;;;5.78;4.95;;;;;;;;;;5017961;28;20037;-71
2021/07/22 11:18:34;;;;;;;7.38;5.57;;;;;;;;;;5016016;28;20124;-71
2021/07/22 11:21:03;;;;;;;7.60;4.88;;;;;;;;;;4995945;28;20049;-71
2021/07/22 11:23:30;;;;;;;11.23;5.57;;;;;;;;;;5019968;28;20045;-71
2021/07/22 11:25:56;;;;;;;10.93;5.70;;;;;;;;;;5020481;28;20052;-71
2021/07/22 11:28:23;;;;;;;7.95;5.43;;;;;;;;;;5018959;28;20075;-71
2021/07/22 11:30:59;;;;;;;8.75;5.38;;;;;;;;;;5020838;28;20044;-71
2021/07/22 11:33:26;;;;;;;8.57;5.72;;;;;;;;;;5020154;28;20486;-73
2021/07/22 11:35:56;;;;;;;7.85;5.40;;;;;;;;;;5015258;28;20033;-70
2021/07/22 11:38:22;;;;;;;6.38;5.63;;;;;;;;;;5018782;28;20371;-70
2021/07/22 11:40:48;;;;;;;6.50;5.53;;;;;;;;;;5020418;28;20025;-71
2021/07/22 11:43:31;;;;;;;7.60;5.13;;;;;;;;;;5020796;28;20116;-70
2021/07/22 11:45:57;;;;;;;7.68;5.28;;;;;;;;;;5014992;28;20056;-70
2021/07/22 11:48:23;;;;;;;6.10;5.50;;;;;;;;;;5008863;28;20021;-70
2021/07/22 11:51:00;;;;;;;7.25;5.20;;;;;;;;;;5008471;28;20048;-70
2021/07/22 11:53:27;;;;;;;6.55;5.32;;;;;;;;;;5020742;28;20018;-73
2021/07/22 11:55:53;;;;;;;8.50;5.72;;;;;;;;;;5020185;28;20028;-70
2021/07/22 11:58:19;;;;;;;6.15;4.53;;;;;;;;;;5017322;28;20152;-71
2021/07/22 12:00:45;;;;;;;6.97;5.25;;;;;;;;;;5020545;28;20036;-70
2021/07/22 12:03:11;;;;;;;8.48;5.93;;;;;;;;;;5018344;28;20030;-71
2021/07/22 12:05:38;;;;;;;7.30;5.50;;;;;;;;;;5020498;28;20387;-70
2021/07/22 12:08:18;;;;;;;7.47;5.72;;;;;;;;;;5022639;28;20021;-70
2021/07/22 12:10:46;;;;;;;7.97;5.45;;;;;;;;;;5024267;28;20068;-70
2021/07/22 12:13:12;;;;;;;9.80;5.32;;;;;;;;;;5023765;28;20039;-70
2021/07/22 12:15:39;;;;;;;8.38;5.72;;;;;;;;;;5017051;28;20025;-69
2021/07/22 12:18:06;;;;;;;6.88;5.68;;;;;;;;;;5012592;28;20052;-70
2021/07/22 12:20:37;;;;;;;7.28;5.50;;;;;;;;;;5009144;28;20065;-70
2021/07/22 12:23:22;;;;;;;7.75;5.57;;;;;;;;;;5010744;28;20525;-70
2021/07/22 12:25:57;;;;;;;5.93;5.18;;;;;;;;;;5017217;28;20052;-69
2021/07/22 12:28:23;;;;;;;7.82;5.05;;;;;;;;;;5009251;28;20421;-69
2021/07/22 12:30:50;;;;;;;7.22;5.53;;;;;;;;;;5008799;28;20026;-70
2021/07/22 12:33:24;;;;;;;9.70;5.80;;;;;;;;;;5012580;28;20021;-70
2021/07/22 12:35:50;;;;;;;6.78;5.43;;;;;;;;;;5007272;28;20100;-69
2021/07/22 12:38:16;;;;;;;6.72;5.38;;;;;;;;;;5007993;28;20057;-70
2021/07/22 12:40:47;;;;;;;6.55;5.80;;;;;;;;;;5008258;28;20022;-69
2021/07/22 12:43:14;;;;;;;5.88;5.32;;;;;;;;;;5008904;28;20029;-70
2021/07/22 12:45:41;;;;;;;8.35;5.22;;;;;;;;;;5009447;28;20497;-70
2021/07/22 12:48:08;;;;;;;7.82;5.28;;;;;;;;;;5006014;28;20132;-72
2021/07/22 12:50:43;;;;;;;9.80;5.43;;;;;;;;;;5008371;28;20029;-71
2021/07/22 12:53:29;;;;;;;5.20;4.70;;;;;;;;;;5008835;28;20104;-71
2021/07/22 12:55:59;;;;;;;8.52;5.88;;;;;;;;;;5006499;28;20037;-71
2021/07/22 12:58:26;;;;;;;6.60;5.60;;;;;;;;;;5011633;28;20028;-70
2021/07/22 13:00:59;;;;;;;8.43;5.38;;;;;;;;;;5010513;28;20034;-69
2021/07/22 13:03:25;;;;;;;7.88;5.32;;;;;;;;;;5014465;28;20352;-69
2021/07/22 13:05:51;;;;;;;6.07;5.07;;;;;;;;;;5022331;28;20034;-69
2021/07/22 13:08:18;;;;;;;7.68;5.57;;;;;;;;;;5022580;28;20029;-71
2021/07/22 13:10:44;;;;;;;8.43;5.45;;;;;;;;;;5018393;28;20025;-69
2021/07/22 13:13:10;;;;;;;7.43;4.97;;;;;;;;;;5022661;28;20028;-69
2021/07/22 13:15:36;;;;;;;6.25;5.65;;;;;;;;;;5021991;28;20108;-69
2021/07/22 13:18:02;;;;;;;6.43;5.65;;;;;;;;;;5023034;28;20041;-70
2021/07/22 13:20:28;;;;;;;6.65;5.15;;;;;;;;;;5017340;28;20034;-70
2021/07/22 13:22:54;;;;;;;5.57;4.75;;;;;;;;;;5022485;28;20029;-69
2021/07/22 13:25:21;;;;;;;9.00;5.70;;;;;;;;;;5022762;28;20034;-69
2021/07/22 13:27:47;;;;;;;6.32;5.20;;;;;;;;;;5018074;28;20026;-71
2021/07/22 13:30:14;;;;;;;6.90;5.32;;;;;;;;;;5022364;28;20091;-71
2021/07/22 13:32:41;;;;;;;12.00;5.43;;;;;;;;;;5022686;28;20367;-70
2021/07/22 13:35:08;;;;;;;10.27;5.32;;;;;;;;;;5021451;28;20087;-69
2021/07/22 13:37:35;;;;;;;14.55;5.15;;;;;;;;;;5021658;28;20079;-69
2021/07/22 13:40:01;;;;;;;6.43;5.22;;;;;;;;;;5022631;28;20064;-69
2021/07/22 13:42:27;;;;;;;9.95;5.43;;;;;;;;;;5020598;28;20029;-70
2021/07/22 13:44:54;;;;;;;6.72;5.25;;;;;;;;;;5014421;28;20112;-71
2021/07/22 13:47:20;;;;;;;7.43;5.30;;;;;;;;;;5020712;28;20437;-69
2021/07/22 13:49:46;;;;;;;7.72;5.47;;;;;;;;;;5022131;28;20025;-72
2021/07/22 13:52:12;;;;;;;17.92;6.10;;;;;;;;;;5022338;28;20029;-69
2021/07/22 13:54:39;;;;;;;5.47;4.50;;;;;;;;;;5020147;28;20025;-69
2021/07/22 13:57:06;;;;;;;5.65;4.88;;;;;;;;;;5022069;28;20091;-73
2021/07/22 13:59:32;;;;;;;5.93;4.97;;;;;;;;;;5020136;28;20033;-70
2021/07/22 14:01:58;;;;;;;6.38;5.32;;;;;;;;;;5014344;28;20477;-69
2021/07/22 14:04:25;;;;;;;8.38;5.25;;;;;;;;;;5021691;28;20025;-69
2021/07/22 14:06:51;;;;;;;8.95;4.90;;;;;;;;;;5021222;28;20087;-69
2021/07/22 14:09:17;;;;;;;5.60;4.40;;;;;;;;;;5020459;28;20033;-69
2021/07/22 14:11:43;;;;;;;6.50;5.15;;;;;;;;;;5021556;28;20048;-70
2021/07/22 14:14:09;;;;;;;5.75;4.47;;;;;;;;;;5021811;28;20041;-69
2021/07/22 14:16:35;;;;;;;7.25;5.15;;;;;;;;;;5014727;28;20029;-70
2021/07/22 14:19:01;;;;;;;7.07;4.82;;;;;;;;;;5020128;28;20050;-72
2021/07/22 14:21:28;;;;;;;7.65;4.88;;;;;;;;;;5019962;28;20460;-69
2021/07/22 14:23:54;;;;;;;8.30;4.82;;;;;;;;;;5019335;28;20029;-70
2021/07/22 14:26:20;;;;;;;6.35;4.75;;;;;;;;;;5008527;28;20402;-69
2021/07/22 14:28:46;;;;;;;5.93;4.60;;;;;;;;;;5006633;28;20025;-70
2021/07/22 14:31:12;;;;;;;5.60;5.00;;;;;;;;;;5011542;28;20033;-74
2021/07/22 14:33:39;;;;;;;5.85;5.25;;;;;;;;;;5004610;28;20042;-70
2021/07/22 14:36:05;;;;;;;7.82;5.10;;;;;;;;;;5007891;28;20025;-69
2021/07/22 14:38:32;;;;;;;5.90;5.20;;;;;;;;;;5007870;28;20028;-70
2021/07/22 14:40:58;;;;;;;7.72;4.40;;;;;;;;;;5007388;28;20037;-70
2021/07/22 14:43:24;;;;;;;10.10;5.45;;;;;;;;;;5006772;28;20026;-70
2021/07/22 14:45:50;;;;;;;8.82;5.70;;;;;;;;;;5006742;28;20409;-70